createdAt,value
2019-01-29T04:18:15.363Z,105.00
2019-01-29T04:41:01.896Z,109.47
2019-01-29T06:59:29.707Z,101.60
2019-01-29T07:55:33.950Z,111.23
2019-01-29T08:25:14.233Z,115.07
2019-01-29T08:37:32.104Z,114.37
2019-01-29T09:02:45.055Z,128.33
2019-01-29T09:26:11.780Z,118.07
2019-01-29T09:29:31.683Z,107.50
2019-01-29T09:30:09.765Z,95.10
2019-01-29T09:35:43.657Z,107.20
2019-01-29T09:47:35.497Z,101.07
2019-01-29T09:56:30.200Z,84.97
2019-01-29T10:02:17.720Z,78.50
2019-01-29T10:08:25.241Z,69.90
2019-01-29T10:14:16.341Z,68.20
2019-01-29T10:23:34.714Z,58.47
2019-01-29T10:32:19.935Z,60.53
2019-01-29T10:38:20.553Z,59.00
2019-01-29T10:40:45.454Z,52.83
2019-01-29T10:56:58.879Z,40.73
2019-01-29T11:02:39.424Z,28.53
2019-01-29T11:05:24.728Z,36.13
2019-01-29T11:08:17.259Z,37.10
2019-01-29T11:11:15.327Z,37.97
2019-01-29T11:13:51.299Z,32.53
2019-01-29T11:16:35.505Z,35.93
2019-01-29T11:19:21.944Z,43.63
2019-01-29T11:25:08.953Z,30.27
2019-01-29T11:28:21.656Z,29.90
2019-01-29T11:30:52.045Z,32.27
2019-01-29T11:33:36.654Z,31.97
2019-01-29T11:40:14.082Z,30.00
2019-01-29T11:45:09.272Z,30.37
2019-01-29T11:50:43.423Z,27.73
2019-01-29T11:56:15.449Z,28.30
2019-01-29T11:59:19.657Z,28.50
2019-01-29T12:05:13.197Z,28.33
2019-01-29T12:08:18.994Z,26.87
2019-01-29T12:11:10.506Z,21.00
2019-01-29T12:13:57.058Z,23.33
2019-01-29T12:23:11.107Z,20.43
2019-01-29T12:28:27.359Z,19.03
2019-01-29T12:31:19.205Z,13.20
2019-01-29T12:37:01.448Z,13.33
2019-01-29T12:39:49.758Z,13.40
2019-01-29T12:44:58.793Z,12.27
2019-01-29T12:47:39.799Z,13.50
2019-01-29T12:50:22.639Z,10.70
2019-01-29T12:56:21.377Z,9.90
2019-01-29T12:59:02.380Z,13.30
2019-01-29T13:01:45.583Z,15.60
2019-01-29T13:04:50.323Z,13.83
2019-01-29T13:10:02.777Z,11.70
2019-01-29T13:12:44.107Z,14.90
2019-01-29T13:15:25.262Z,16.97
2019-01-29T13:20:49.244Z,18.90
2019-01-29T13:23:30.778Z,14.57
2019-01-29T13:26:13.922Z,14.93
2019-01-29T13:29:00.901Z,15.53
2019-01-29T13:31:40.372Z,13.77
2019-01-29T13:34:33.848Z,10.40
2019-01-29T13:37:13.962Z,12.43
2019-01-29T13:40:03.255Z,12.27
2019-01-29T13:42:46.784Z,12.90
2019-01-29T13:45:29.437Z,14.10
2019-01-29T13:51:18.714Z,15.20
2019-01-29T13:54:09.699Z,15.63
2019-01-29T13:56:52.057Z,15.87
2019-01-29T13:59:38.586Z,13.57
2019-01-29T14:02:40.753Z,17.70
2019-01-29T14:05:18.211Z,15.67
2019-01-29T14:10:54.785Z,17.17
2019-01-29T14:16:39.105Z,16.07
2019-01-29T14:19:22.582Z,20.27
2019-01-29T14:22:15.764Z,21.00
2019-01-29T15:44:27.354Z,16.37
2019-01-29T16:46:28.508Z,24.50
2019-01-29T16:55:37.036Z,25.97
2019-01-29T17:00:50.838Z,26.10
2019-01-29T17:15:59.217Z,26.53
2019-01-29T17:30:16.447Z,132.73
2019-01-29T17:36:13.797Z,26.40
2019-01-29T17:45:08.108Z,28.17
2019-01-29T17:51:10.814Z,36.07
2019-01-29T18:02:29.312Z,27.27
2019-01-29T18:05:38.156Z,27.27
2019-01-29T18:08:49.962Z,25.53
2019-01-29T18:20:17.513Z,32.50
2019-01-29T18:29:18.868Z,28.03
2019-01-29T18:37:48.359Z,26.57
2019-01-29T18:43:00.834Z,23.40
2019-01-29T18:46:00.887Z,27.77
2019-01-29T18:48:47.252Z,23.87
2019-01-29T18:51:39.748Z,25.97
2019-01-29T18:54:08.655Z,26.33
2019-01-29T19:03:06.543Z,28.40
2019-01-29T19:09:20.221Z,29.07
2019-01-29T19:11:17.061Z,31.20
